createdAt,value
2017-08-19T00:00:11.383Z,19.6
2017-08-19T00:01:12.380Z,19.6
2017-08-19T00:02:13.360Z,19.6
2017-08-19T00:03:15.006Z,19.6
2017-08-19T00:04:15.925Z,19.6
2017-08-19T00:05:17.232Z,19.5
2017-08-19T00:06:22.932Z,19.5
2017-08-19T00:07:23.958Z,19.6
2017-08-19T00:08:25.392Z,19.5
2017-08-19T00:09:26.739Z,19.5
2017-08-19T00:10:28.034Z,19.6
2017-08-19T00:11:29.040Z,19.4
2017-08-19T00:12:29.716Z,19.4
2017-08-19T00:13:30.442Z,19.4
2017-08-19T00:14:31.272Z,19.4
2017-08-19T00:15:32.272Z,19.4
2017-08-19T00:16:33.397Z,19.4
2017-08-19T00:17:34.479Z,19.3
2017-08-19T00:18:35.150Z,19.3
2017-08-19T00:19:35.921Z,19.4
2017-08-19T00:20:36.685Z,19.4
2017-08-19T00:21:37.486Z,19.4
2017-08-19T00:22:38.241Z,19.3
2017-08-19T00:23:38.940Z,19.3
2017-08-19T00:24:39.725Z,19.3
2017-08-19T00:25:40.563Z,19.3
2017-08-19T00:26:41.285Z,19.4
2017-08-19T00:27:42.054Z,19.3
2017-08-19T00:28:42.841Z,19.3
2017-08-19T00:29:43.652Z,19.3
2017-08-19T00:30:44.863Z,19.2
2017-08-19T00:31:45.557Z,19.2
2017-08-19T00:32:46.298Z,19.1
2017-08-19T00:33:47.059Z,19.1
2017-08-19T00:34:47.791Z,19.2
2017-08-19T00:35:48.957Z,19.2
2017-08-19T00:36:49.748Z,19.1
2017-08-19T00:37:50.524Z,19.1
2017-08-19T00:38:51.303Z,19.1
2017-08-19T00:39:52.105Z,19.1
2017-08-19T00:40:52.924Z,19.1
2017-08-19T00:41:54.152Z,19.2
2017-08-19T00:42:55.011Z,19.0
2017-08-19T00:43:55.819Z,19.1
2017-08-19T00:45:58.702Z,19.1
2017-08-19T00:46:59.883Z,19.1
2017-08-19T00:48:00.843Z,19.0
2017-08-19T00:49:02.991Z,19.0
2017-08-19T00:50:03.667Z,18.9
2017-08-19T00:51:04.459Z,18.8
2017-08-19T00:52:05.405Z,18.9
2017-08-19T00:53:06.399Z,18.8
2017-08-19T00:54:07.221Z,18.8
2017-08-19T00:55:07.959Z,18.8
2017-08-19T00:56:08.676Z,18.8
2017-08-19T00:57:09.408Z,18.7
2017-08-19T00:58:10.526Z,18.8
2017-08-19T00:59:11.240Z,18.8
2017-08-19T01:00:12.397Z,18.8
2017-08-19T01:01:13.198Z,18.8
2017-08-19T01:02:13.950Z,18.7
2017-08-19T01:03:14.681Z,18.8
2017-08-19T01:04:15.442Z,18.8
2017-08-19T01:05:16.144Z,18.8
2017-08-19T01:06:16.944Z,18.8
2017-08-19T01:07:17.697Z,18.8
2017-08-19T01:08:18.451Z,18.7
2017-08-19T01:09:19.304Z,18.7
2017-08-19T01:11:35.795Z,18.7
2017-08-19T01:12:36.758Z,18.6
2017-08-19T01:13:37.497Z,18.6
2017-08-19T01:14:38.225Z,18.7
2017-08-19T01:15:38.953Z,18.7
2017-08-19T01:16:39.693Z,18.7
2017-08-19T01:17:40.476Z,18.7
2017-08-19T01:18:43.158Z,18.8
2017-08-19T01:19:48.938Z,18.7
2017-08-19T01:20:49.867Z,18.6
2017-08-19T01:21:50.679Z,18.6
2017-08-19T01:22:51.469Z,18.6
2017-08-19T01:23:52.245Z,18.8
2017-08-19T01:24:53.250Z,18.7
2017-08-19T01:25:53.973Z,18.7
2017-08-19T01:26:54.980Z,18.8
2017-08-19T01:27:55.708Z,18.9
2017-08-19T01:28:56.453Z,18.8
2017-08-19T01:29:57.221Z,18.8
2017-08-19T01:30:58.291Z,18.8
2017-08-19T01:31:59.416Z,18.8
2017-08-19T01:33:00.183Z,18.8
2017-08-19T01:34:01.106Z,18.8
2017-08-19T01:35:01.930Z,18.9
2017-08-19T01:36:02.624Z,18.8
2017-08-19T01:37:03.486Z,18.9
2017-08-19T01:38:04.260Z,18.9
2017-08-19T01:39:05.558Z,19.0
2017-08-19T01:40:06.403Z,19.0
2017-08-19T01:41:07.202Z,18.9
2017-08-19T01:42:07.863Z,18.8
2017-08-19T01:43:08.690Z,18.9
2017-08-19T01:44:09.530Z,18.9
2017-08-19T01:45:10.204Z,19.0
2017-08-19T01:46:11.144Z,19.0
2017-08-19T01:47:11.890Z,19.0
2017-08-19T01:48:12.662Z,19.0
2017-08-19T01:49:13.511Z,19.0
2017-08-19T01:50:14.249Z,19.0
2017-08-19T01:51:14.989Z,19.0
2017-08-19T01:52:15.775Z,19.1
2017-08-19T01:53:16.606Z,19.1
2017-08-19T01:54:17.328Z,19.1
2017-08-19T01:55:18.042Z,19.2
2017-08-19T01:56:18.776Z,19.1
2017-08-19T01:57:19.586Z,19.0
2017-08-19T01:58:20.351Z,19.0
2017-08-19T01:59:21.164Z,19.0
2017-08-19T02:00:21.888Z,19.0
2017-08-19T02:01:22.601Z,19.0
2017-08-19T02:02:23.419Z,19.0
2017-08-19T02:03:24.240Z,19.1
2017-08-19T02:04:25.383Z,19.1
2017-08-19T02:05:26.378Z,19.1
2017-08-19T02:06:27.147Z,19.0
2017-08-19T02:07:27.891Z,19.0
2017-08-19T02:08:28.668Z,19.0
2017-08-19T02:09:29.414Z,19.0
2017-08-19T02:10:30.157Z,19.0
2017-08-19T02:11:31.102Z,19.0
2017-08-19T02:12:31.928Z,18.9
2017-08-19T02:13:32.649Z,19.0
2017-08-19T02:14:33.421Z,18.9
2017-08-19T02:15:34.203Z,18.9
2017-08-19T02:16:35.053Z,18.9
2017-08-19T02:17:35.831Z,18.9
2017-08-19T02:18:36.537Z,19.0
2017-08-19T02:19:37.265Z,19.0
2017-08-19T02:20:38.068Z,19.0
2017-08-19T02:21:38.799Z,18.9
2017-08-19T02:22:39.537Z,18.9
2017-08-19T02:23:40.310Z,18.9
2017-08-19T02:24:41.074Z,18.9
2017-08-19T02:25:41.849Z,19.0
2017-08-19T02:26:42.584Z,18.8
2017-08-19T02:27:43.461Z,18.9
2017-08-19T02:28:44.200Z,19.0
2017-08-19T02:29:45.315Z,18.9
2017-08-19T02:30:45.997Z,18.8
2017-08-19T02:31:46.766Z,18.8
2017-08-19T02:32:47.577Z,18.8
2017-08-19T02:33:48.330Z,18.8
2017-08-19T02:34:49.148Z,18.7
2017-08-19T02:35:49.946Z,18.7
2017-08-19T02:36:50.921Z,18.7
2017-08-19T02:37:51.591Z,18.7
2017-08-19T02:38:52.355Z,18.7
2017-08-19T02:39:53.123Z,18.6
2017-08-19T02:40:53.871Z,18.7
2017-08-19T02:41:54.854Z,18.6
2017-08-19T02:42:55.601Z,18.7
2017-08-19T02:43:56.549Z,18.6
2017-08-19T02:44:57.297Z,18.6
2017-08-19T02:45:58.101Z,18.6
2017-08-19T02:46:58.829Z,18.6
2017-08-19T02:47:59.598Z,18.6
2017-08-19T02:49:00.333Z,18.4
2017-08-19T02:50:01.607Z,18.6
2017-08-19T02:51:02.401Z,18.6
2017-08-19T02:52:03.098Z,18.6
2017-08-19T02:53:03.825Z,18.5
2017-08-19T02:54:04.537Z,18.4
2017-08-19T02:55:05.269Z,18.5
2017-08-19T02:56:06.028Z,18.4
2017-08-19T02:57:06.791Z,18.4
2017-08-19T02:58:07.582Z,18.5
2017-08-19T02:59:08.354Z,18.6
2017-08-19T03:00:09.123Z,18.6
2017-08-19T03:01:09.810Z,18.4
2017-08-19T03:02:10.584Z,18.5
2017-08-19T03:03:11.368Z,18.4
2017-08-19T03:04:12.093Z,18.4
2017-08-19T03:05:13.031Z,18.5
2017-08-19T03:07:29.637Z,18.5
2017-08-19T03:08:30.338Z,18.4
2017-08-19T03:09:31.083Z,18.5
2017-08-19T03:10:31.891Z,18.4
2017-08-19T03:11:32.613Z,18.4
2017-08-19T03:12:33.564Z,18.4
2017-08-19T03:13:34.331Z,18.4
2017-08-19T03:14:35.113Z,18.4
2017-08-19T03:15:35.903Z,18.3
2017-08-19T03:16:36.991Z,18.3
2017-08-19T03:17:37.729Z,18.3
2017-08-19T03:18:38.463Z,18.3
2017-08-19T03:19:39.250Z,18.3
2017-08-19T03:20:39.979Z,18.3
2017-08-19T03:21:40.805Z,18.3
2017-08-19T03:22:41.510Z,18.2
2017-08-19T03:23:42.255Z,18.2
2017-08-19T03:24:42.993Z,18.2
2017-08-19T03:25:43.723Z,18.3
2017-08-19T03:28:00.129Z,18.3
2017-08-19T03:29:00.869Z,18.1
2017-08-19T03:30:01.841Z,18.2
2017-08-19T03:31:02.567Z,18.2
2017-08-19T03:32:03.334Z,18.3
2017-08-19T03:33:04.119Z,18.3
2017-08-19T03:34:04.939Z,18.3
2017-08-19T03:35:05.688Z,18.2
2017-08-19T03:36:06.611Z,18.3
2017-08-19T03:37:07.615Z,18.2
2017-08-19T03:38:08.494Z,18.2
2017-08-19T03:39:09.267Z,18.2
2017-08-19T03:40:09.999Z,18.3
2017-08-19T03:41:10.766Z,18.2
2017-08-19T03:42:11.458Z,18.3
2017-08-19T03:43:12.261Z,18.2
2017-08-19T03:44:12.947Z,18.2
2017-08-19T03:45:13.779Z,18.3
2017-08-19T03:46:14.547Z,18.2
2017-08-19T03:47:15.272Z,18.1
2017-08-19T03:48:16.047Z,18.1
2017-08-19T03:49:16.813Z,18.1
2017-08-19T03:50:17.542Z,18.1
2017-08-19T03:51:18.281Z,18.1
2017-08-19T03:52:19.016Z,18.0
2017-08-19T03:53:19.745Z,18.0
2017-08-19T03:54:20.492Z,18.0
2017-08-19T03:55:21.254Z,18.0
2017-08-19T03:56:22.017Z,17.9
2017-08-19T03:57:22.755Z,17.9
2017-08-19T03:58:23.499Z,17.9
2017-08-19T03:59:24.447Z,18.0
2017-08-19T04:00:25.190Z,17.9
2017-08-19T04:01:25.914Z,18.0
2017-08-19T04:02:26.774Z,17.9
2017-08-19T04:03:27.510Z,17.8
2017-08-19T04:04:28.257Z,17.9
2017-08-19T04:05:28.992Z,17.8
2017-08-19T04:06:29.743Z,17.9
2017-08-19T04:07:30.713Z,17.8
2017-08-19T04:08:31.480Z,17.9
2017-08-19T04:09:32.315Z,17.8
2017-08-19T04:10:33.100Z,17.8
2017-08-19T04:11:33.833Z,17.8
2017-08-19T04:12:34.796Z,17.8
2017-08-19T04:13:35.620Z,17.8
2017-08-19T04:14:36.329Z,17.9
2017-08-19T04:15:37.449Z,17.8
2017-08-19T04:16:38.451Z,17.7
2017-08-19T04:17:39.201Z,17.8
2017-08-19T04:18:39.969Z,17.7
2017-08-19T04:19:40.704Z,17.7
2017-08-19T04:20:41.535Z,17.6
2017-08-19T04:21:42.287Z,17.6
2017-08-19T04:22:43.043Z,17.6
2017-08-19T04:23:43.850Z,17.5
2017-08-19T04:24:44.591Z,17.6
2017-08-19T04:25:45.444Z,17.6
2017-08-19T04:26:46.203Z,17.5
2017-08-19T04:27:46.944Z,17.6
2017-08-19T04:28:47.732Z,17.5
2017-08-19T04:29:48.724Z,17.5
2017-08-19T04:30:49.471Z,17.5
2017-08-19T04:31:50.211Z,17.6
2017-08-19T04:32:50.969Z,17.4
2017-08-19T04:33:51.751Z,17.5
2017-08-19T04:34:52.456Z,17.5
2017-08-19T04:35:53.189Z,17.5
2017-08-19T04:36:53.961Z,17.6
2017-08-19T04:37:54.688Z,17.4
2017-08-19T04:38:55.622Z,17.4
2017-08-19T04:39:56.522Z,17.4
2017-08-19T04:40:57.236Z,17.5
2017-08-19T04:41:58.004Z,17.4
2017-08-19T04:42:58.783Z,17.5
2017-08-19T04:43:59.449Z,17.4
2017-08-19T04:45:00.224Z,17.4
2017-08-19T04:46:00.965Z,17.4
2017-08-19T04:47:01.696Z,17.5
2017-08-19T04:48:02.502Z,17.4
2017-08-19T04:49:03.242Z,17.4
2017-08-19T04:50:03.925Z,17.4
2017-08-19T04:51:04.710Z,17.2
2017-08-19T04:52:05.747Z,17.4
2017-08-19T04:53:06.431Z,17.5
2017-08-19T04:54:07.303Z,17.4
2017-08-19T04:55:07.996Z,17.5
2017-08-19T04:57:24.303Z,17.5
2017-08-19T04:58:25.016Z,17.5
2017-08-19T04:59:25.936Z,17.4
2017-08-19T05:00:26.718Z,17.4
2017-08-19T05:01:27.635Z,17.4
2017-08-19T05:02:28.434Z,17.5
2017-08-19T05:03:29.163Z,17.4
2017-08-19T05:04:29.976Z,17.4
2017-08-19T05:06:46.573Z,17.5
2017-08-19T05:07:47.293Z,17.6
2017-08-19T05:08:48.013Z,17.6
2017-08-19T05:09:48.795Z,17.5
2017-08-19T05:10:49.599Z,17.4
2017-08-19T05:11:50.343Z,17.6
2017-08-19T05:12:51.094Z,17.5
2017-08-19T05:13:51.994Z,17.5
2017-08-19T05:14:52.763Z,17.5
2017-08-19T05:15:53.741Z,17.5
2017-08-19T05:16:54.450Z,17.6
2017-08-19T05:17:55.242Z,17.6
2017-08-19T05:18:56.102Z,17.7
2017-08-19T05:19:56.844Z,17.5
2017-08-19T05:20:57.733Z,17.6
2017-08-19T05:23:14.045Z,17.6
2017-08-19T05:24:14.819Z,17.6
2017-08-19T05:25:15.620Z,17.7
2017-08-19T05:26:16.420Z,17.6
2017-08-19T05:27:17.191Z,17.7
2017-08-19T05:28:18.007Z,17.6
2017-08-19T05:29:18.758Z,17.5
2017-08-19T05:30:19.462Z,17.6
2017-08-19T05:31:20.781Z,17.7
2017-08-19T05:32:21.578Z,17.6
2017-08-19T05:33:22.423Z,17.7
2017-08-19T05:34:23.299Z,17.6
2017-08-19T05:35:24.925Z,17.7
2017-08-19T05:36:25.622Z,17.8
2017-08-19T05:37:26.622Z,17.9
2017-08-19T05:38:27.356Z,17.9
2017-08-19T05:39:28.124Z,17.9
2017-08-19T05:40:28.910Z,18.0
2017-08-19T05:41:29.665Z,17.8
2017-08-19T05:42:30.418Z,17.8
2017-08-19T05:43:31.171Z,17.8
2017-08-19T05:44:31.968Z,17.8
2017-08-19T05:45:32.655Z,17.8
2017-08-19T05:46:33.596Z,17.8
2017-08-19T05:47:34.328Z,17.8
2017-08-19T05:48:35.291Z,17.8
2017-08-19T05:49:36.095Z,17.9
2017-08-19T05:50:37.244Z,17.8
2017-08-19T05:51:38.026Z,18.0
2017-08-19T05:52:38.790Z,18.0
2017-08-19T05:53:39.745Z,18.0
2017-08-19T05:54:40.574Z,18.0
2017-08-19T05:55:41.376Z,18.0
2017-08-19T05:56:52.433Z,17.9
2017-08-19T05:57:53.735Z,18.0
2017-08-19T05:58:54.513Z,18.0
2017-08-19T06:00:00.374Z,18.1
2017-08-19T06:01:01.268Z,18.1
2017-08-19T06:02:02.069Z,18.3
2017-08-19T06:03:02.860Z,18.2
2017-08-19T06:04:08.612Z,18.3
2017-08-19T06:05:09.615Z,18.4
2017-08-19T06:06:10.712Z,18.4
2017-08-19T06:07:11.710Z,18.4
2017-08-19T06:08:12.502Z,18.4
2017-08-19T06:09:13.208Z,18.3
2017-08-19T06:10:14.001Z,18.4
2017-08-19T06:11:14.742Z,18.4
2017-08-19T06:12:15.833Z,18.4
2017-08-19T06:13:16.790Z,18.4
2017-08-19T06:14:17.560Z,18.4
2017-08-19T06:16:34.007Z,18.5
2017-08-19T06:17:34.790Z,18.6
2017-08-19T06:18:40.556Z,18.7
2017-08-19T06:19:41.325Z,18.6
2017-08-19T06:20:42.202Z,18.7
2017-08-19T06:21:42.945Z,18.7
2017-08-19T06:22:43.713Z,18.7
2017-08-19T06:23:44.394Z,18.7
2017-08-19T06:24:51.406Z,18.8
2017-08-19T06:25:52.185Z,18.8
2017-08-19T06:26:53.135Z,18.9
2017-08-19T06:27:53.914Z,19.0
2017-08-19T06:28:54.769Z,19.0
2017-08-19T06:29:55.493Z,19.1
2017-08-19T06:30:56.482Z,19.1
2017-08-19T06:31:57.415Z,19.2
2017-08-19T06:33:03.260Z,19.2
2017-08-19T06:34:03.970Z,19.3
2017-08-19T06:36:20.288Z,19.3
2017-08-19T06:37:22.570Z,19.4
2017-08-19T06:38:23.312Z,19.4
2017-08-19T06:39:24.051Z,19.5
2017-08-19T06:40:24.821Z,19.5
2017-08-19T06:41:25.586Z,19.5
2017-08-19T06:42:26.349Z,19.4
2017-08-19T06:43:27.130Z,19.5
2017-08-19T06:44:27.880Z,19.4
2017-08-19T06:45:28.602Z,19.4
2017-08-19T06:46:29.362Z,19.4
2017-08-19T06:47:30.162Z,19.4
2017-08-19T06:48:30.906Z,19.3
2017-08-19T06:49:31.657Z,19.3
2017-08-19T06:50:32.435Z,19.3
2017-08-19T06:52:49.244Z,19.4
2017-08-19T06:53:49.920Z,19.4
2017-08-19T06:54:50.668Z,19.5
2017-08-19T06:55:51.512Z,19.6
2017-08-19T06:56:52.305Z,19.6
2017-08-19T06:57:53.105Z,19.6
2017-08-19T06:58:54.238Z,19.6
2017-08-19T06:59:55.029Z,19.5
2017-08-19T07:00:55.904Z,19.5
2017-08-19T07:03:12.257Z,19.4
2017-08-19T07:04:12.942Z,19.4
2017-08-19T07:05:13.792Z,19.4
2017-08-19T07:06:14.480Z,19.4
2017-08-19T07:07:15.535Z,19.4
2017-08-19T07:08:16.383Z,19.3
2017-08-19T07:09:22.104Z,19.4
2017-08-19T07:10:22.865Z,19.3
2017-08-19T07:11:24.017Z,19.4
2017-08-19T07:12:24.734Z,19.4
2017-08-19T07:13:25.793Z,19.4
2017-08-19T07:14:26.672Z,19.4
2017-08-19T07:15:27.715Z,19.5
2017-08-19T07:16:33.480Z,19.5
2017-08-19T07:17:34.222Z,19.3
2017-08-19T07:18:34.940Z,19.3
2017-08-19T07:19:35.674Z,19.3
2017-08-19T07:20:36.700Z,19.4
2017-08-19T07:21:37.558Z,19.4
2017-08-19T07:22:38.353Z,19.3
2017-08-19T07:23:39.515Z,19.3
2017-08-19T07:25:55.947Z,19.3
2017-08-19T07:26:56.821Z,19.3
2017-08-19T07:27:57.566Z,19.3
2017-08-19T07:28:58.482Z,19.3
2017-08-19T07:29:59.386Z,19.3
2017-08-19T07:31:00.449Z,19.3
2017-08-19T07:32:01.137Z,19.3
2017-08-19T07:33:01.978Z,19.4
2017-08-19T07:34:03.130Z,19.3
2017-08-19T07:35:04.077Z,19.4
2017-08-19T07:36:04.896Z,19.3
2017-08-19T07:37:05.588Z,19.3
2017-08-19T07:38:06.550Z,19.1
2017-08-19T07:39:07.359Z,19.2
2017-08-19T07:40:08.177Z,19.2
2017-08-19T07:41:08.994Z,19.3
2017-08-19T07:42:09.746Z,19.2
2017-08-19T07:43:10.475Z,19.1
2017-08-19T07:44:16.273Z,19.2
2017-08-19T07:45:17.276Z,19.3
2017-08-19T07:46:23.289Z,19.4
2017-08-19T07:47:24.122Z,19.3
2017-08-19T07:48:24.858Z,19.4
2017-08-19T07:49:25.593Z,19.4
2017-08-19T07:50:26.279Z,19.5
2017-08-19T07:51:27.041Z,19.6
2017-08-19T07:52:27.838Z,19.8
2017-08-19T07:54:44.136Z,20.1
2017-08-19T07:55:44.960Z,20.2
2017-08-19T07:56:45.811Z,20.2
2017-08-19T07:57:46.886Z,20.3
2017-08-19T07:58:47.756Z,20.4
2017-08-19T07:59:48.494Z,20.3
2017-08-19T08:00:49.222Z,20.3
2017-08-19T08:01:50.023Z,20.2
2017-08-19T08:02:56.088Z,20.1
2017-08-19T08:03:56.831Z,19.9
2017-08-19T08:04:58.412Z,19.9
2017-08-19T08:05:59.102Z,20.0
2017-08-19T08:07:00.143Z,19.8
2017-08-19T08:08:01.010Z,19.9
2017-08-19T08:09:01.986Z,19.9
2017-08-19T08:10:02.954Z,19.8
2017-08-19T08:11:03.876Z,20.0
2017-08-19T08:12:04.888Z,20.0
2017-08-19T08:13:06.357Z,20.1
2017-08-19T08:15:22.999Z,20.2
2017-08-19T08:16:23.701Z,20.2
2017-08-19T08:17:24.446Z,20.1
2017-08-19T08:18:30.576Z,20.1
2017-08-19T08:20:46.786Z,20.1
2017-08-19T08:21:47.546Z,20.1
2017-08-19T08:22:48.303Z,20.1
2017-08-19T08:23:49.051Z,20.2
2017-08-19T08:24:49.878Z,20.2
2017-08-19T08:25:50.606Z,20.7
2017-08-19T08:26:51.528Z,21.0
2017-08-19T08:27:52.573Z,21.4
2017-08-19T08:28:58.319Z,21.3
2017-08-19T08:29:59.037Z,21.5
2017-08-19T08:30:59.849Z,21.4
2017-08-19T08:32:00.668Z,21.5
2017-08-19T08:33:01.420Z,22.1
2017-08-19T08:34:02.170Z,22.3
2017-08-19T08:35:02.920Z,22.7
2017-08-19T08:36:03.703Z,23.3
2017-08-19T08:37:04.443Z,23.9
2017-08-19T08:38:05.166Z,24.5
2017-08-19T08:39:05.897Z,25.0
2017-08-19T08:40:06.651Z,25.5
2017-08-19T08:41:07.612Z,25.9
2017-08-19T08:42:08.339Z,26.4
2017-08-19T08:43:09.464Z,26.2
2017-08-19T08:44:10.141Z,26.7
2017-08-19T08:45:10.903Z,27.0
2017-08-19T08:46:11.912Z,26.8
2017-08-19T08:47:12.637Z,26.9
2017-08-19T08:48:13.437Z,26.9
2017-08-19T08:49:14.230Z,26.4
2017-08-19T08:50:15.007Z,25.2
2017-08-19T08:51:15.971Z,26.2
2017-08-19T08:52:16.719Z,26.8
2017-08-19T08:53:17.509Z,26.9
2017-08-19T08:54:18.294Z,27.2
2017-08-19T08:55:19.062Z,26.9
2017-08-19T08:56:20.120Z,27.3
2017-08-19T08:57:21.049Z,27.3
2017-08-19T08:58:21.762Z,27.1
2017-08-19T08:59:22.601Z,27.0
2017-08-19T09:00:23.335Z,27.3
2017-08-19T09:01:24.138Z,27.1
2017-08-19T09:02:24.958Z,26.2
2017-08-19T09:03:26.012Z,26.1
2017-08-19T09:04:26.943Z,27.1
2017-08-19T09:05:27.738Z,27.9
2017-08-19T09:06:28.507Z,28.5
2017-08-19T09:07:29.250Z,28.4
2017-08-19T09:08:30.043Z,29.1
2017-08-19T09:09:31.516Z,28.8
2017-08-19T09:10:32.333Z,28.0
2017-08-19T09:11:33.383Z,28.3
2017-08-19T09:12:34.178Z,28.8
2017-08-19T09:13:34.933Z,29.0
2017-08-19T09:14:35.781Z,29.1
2017-08-19T09:15:36.618Z,29.0
2017-08-19T09:16:37.363Z,29.1
2017-08-19T09:17:38.724Z,29.0
2017-08-19T09:18:39.809Z,28.9
2017-08-19T09:20:42.392Z,29.0
2017-08-19T09:21:43.311Z,29.0
2017-08-19T09:22:44.095Z,28.9
2017-08-19T09:23:44.903Z,28.7
2017-08-19T09:24:45.786Z,28.7
2017-08-19T09:25:46.549Z,28.6
2017-08-19T09:26:47.288Z,28.7
2017-08-19T09:27:48.084Z,28.8
2017-08-19T09:28:48.900Z,28.9
2017-08-19T09:29:49.846Z,28.8
2017-08-19T09:30:50.691Z,28.5
2017-08-19T09:31:51.674Z,28.2
2017-08-19T09:32:52.361Z,27.9
2017-08-19T09:33:53.417Z,27.7
2017-08-19T09:34:54.148Z,27.6
2017-08-19T09:35:54.986Z,27.5
2017-08-19T09:36:55.771Z,27.4
2017-08-19T09:37:56.486Z,27.4
2017-08-19T09:38:57.319Z,27.3
2017-08-19T09:39:58.108Z,27.3
2017-08-19T09:40:58.974Z,27.0
2017-08-19T09:41:59.776Z,27.0
2017-08-19T09:44:16.228Z,27.2
2017-08-19T09:45:16.980Z,27.3
2017-08-19T09:46:17.734Z,27.2
2017-08-19T09:47:19.191Z,27.4
2017-08-19T09:48:20.007Z,27.3
2017-08-19T09:49:21.015Z,27.5
2017-08-19T09:50:21.730Z,27.4
2017-08-19T09:51:22.534Z,27.4
2017-08-19T09:52:23.286Z,27.4
2017-08-19T09:53:24.019Z,27.4
2017-08-19T09:54:24.829Z,27.1
2017-08-19T09:55:30.731Z,27.1
2017-08-19T09:56:31.494Z,27.0
2017-08-19T09:57:32.670Z,27.2
2017-08-19T09:58:33.467Z,27.2
2017-08-19T09:59:34.224Z,27.2
2017-08-19T10:00:35.013Z,27.3
2017-08-19T10:01:35.826Z,27.1
2017-08-19T10:02:36.671Z,26.9
2017-08-19T10:03:37.752Z,26.8
2017-08-19T10:04:38.453Z,26.7
2017-08-19T10:05:39.370Z,26.7
2017-08-19T10:06:40.080Z,26.8
2017-08-19T10:07:40.806Z,26.8
2017-08-19T10:08:41.636Z,26.9
2017-08-19T10:09:42.565Z,26.9
2017-08-19T10:10:43.383Z,27.0
2017-08-19T10:11:44.449Z,27.2
2017-08-19T10:12:45.192Z,27.1
2017-08-19T10:13:45.980Z,27.4
2017-08-19T10:14:46.759Z,27.5
2017-08-19T10:15:47.479Z,27.3
2017-08-19T10:16:48.235Z,27.0
2017-08-19T10:17:48.974Z,26.9
2017-08-19T10:18:49.690Z,26.7
2017-08-19T10:19:50.651Z,26.5
2017-08-19T10:20:51.427Z,26.5
2017-08-19T10:21:52.226Z,26.4
2017-08-19T10:22:52.964Z,26.1
2017-08-19T10:23:53.781Z,26.1
2017-08-19T10:24:59.559Z,26.1
2017-08-19T10:26:00.306Z,25.7
2017-08-19T10:27:01.067Z,25.7
2017-08-19T10:28:01.817Z,25.4
2017-08-19T10:29:02.622Z,25.2
2017-08-19T10:30:03.316Z,25.3
2017-08-19T10:31:04.297Z,25.3
2017-08-19T10:32:05.005Z,25.3
2017-08-19T10:33:05.779Z,25.4
2017-08-19T10:34:06.556Z,25.6
2017-08-19T10:35:07.889Z,25.6
2017-08-19T10:36:08.628Z,25.7
2017-08-19T10:37:09.377Z,25.6
2017-08-19T10:38:10.489Z,25.6
2017-08-19T10:39:11.311Z,25.7
2017-08-19T10:40:12.037Z,25.7
2017-08-19T10:41:12.801Z,25.5
2017-08-19T10:42:13.714Z,25.1
2017-08-19T10:43:14.478Z,25.3
2017-08-19T10:44:15.271Z,25.2
2017-08-19T10:45:15.980Z,25.3
2017-08-19T10:46:16.761Z,25.4
2017-08-19T10:47:17.532Z,25.5
2017-08-19T10:48:18.267Z,25.5
2017-08-19T10:49:19.010Z,25.6
2017-08-19T10:50:19.806Z,25.7
2017-08-19T10:51:20.637Z,25.5
2017-08-19T10:52:21.355Z,25.7
2017-08-19T10:53:22.297Z,25.6
2017-08-19T10:54:28.400Z,25.6
2017-08-19T10:55:29.355Z,25.6
2017-08-19T10:56:30.051Z,25.7
2017-08-19T10:57:30.825Z,25.6
2017-08-19T10:58:31.561Z,25.6
2017-08-19T10:59:32.347Z,25.6
2017-08-19T11:00:33.299Z,25.7
2017-08-19T11:01:34.017Z,25.7
2017-08-19T11:02:34.768Z,25.7
2017-08-19T11:03:35.529Z,25.8
2017-08-19T11:04:36.289Z,25.8
2017-08-19T11:05:37.038Z,26.0
2017-08-19T11:06:37.852Z,26.1
2017-08-19T11:07:38.834Z,26.2
2017-08-19T11:08:39.589Z,26.3
2017-08-19T11:09:40.332Z,26.2
2017-08-19T11:10:41.103Z,26.1
2017-08-19T11:11:41.963Z,25.8
2017-08-19T11:12:45.692Z,25.8
2017-08-19T11:13:46.563Z,25.8
2017-08-19T11:14:47.378Z,25.9
2017-08-19T11:15:48.409Z,25.8
2017-08-19T11:16:49.764Z,25.8
2017-08-19T11:17:50.603Z,25.8
2017-08-19T11:18:51.431Z,25.6
2017-08-19T11:19:52.445Z,25.3
2017-08-19T11:20:53.218Z,25.3
2017-08-19T11:21:54.283Z,25.4
2017-08-19T11:22:55.084Z,25.4
2017-08-19T11:23:56.458Z,25.4
2017-08-19T11:24:57.197Z,25.3
2017-08-19T11:27:13.749Z,25.4
2017-08-19T11:28:14.483Z,25.5
2017-08-19T11:29:15.207Z,25.5
2017-08-19T11:30:16.001Z,25.6
2017-08-19T11:31:21.697Z,25.6
2017-08-19T11:32:22.499Z,25.6
2017-08-19T11:33:23.393Z,25.6
2017-08-19T11:34:24.122Z,25.6
2017-08-19T11:35:24.872Z,25.3
2017-08-19T11:36:25.853Z,25.4
2017-08-19T11:37:26.602Z,25.4
2017-08-19T11:38:27.332Z,25.5
2017-08-19T11:39:28.078Z,25.5
2017-08-19T11:40:28.813Z,25.5
2017-08-19T11:41:29.573Z,25.6
2017-08-19T11:42:30.462Z,25.6
2017-08-19T11:43:31.621Z,25.7
2017-08-19T11:44:32.342Z,25.6
2017-08-19T11:45:33.300Z,25.4
2017-08-19T11:46:34.110Z,25.5
2017-08-19T11:47:35.126Z,25.4
2017-08-19T11:48:36.108Z,25.5
2017-08-19T11:49:36.960Z,25.4
2017-08-19T11:50:37.693Z,25.3
2017-08-19T11:51:39.309Z,25.4
2017-08-19T11:52:40.154Z,25.3
2017-08-19T11:53:40.957Z,25.1
2017-08-19T11:54:41.722Z,25.0
2017-08-19T11:55:42.445Z,24.9
2017-08-19T11:56:43.213Z,24.9
2017-08-19T11:58:59.566Z,24.9
2017-08-19T12:00:00.553Z,24.7
2017-08-19T12:01:01.403Z,24.7
2017-08-19T12:02:02.125Z,24.8
2017-08-19T12:03:02.918Z,24.9
2017-08-19T12:04:03.693Z,24.9
2017-08-19T12:05:04.623Z,24.9
2017-08-19T12:06:05.389Z,24.9
2017-08-19T12:07:06.203Z,24.9
2017-08-19T12:08:07.002Z,25.1
2017-08-19T12:09:07.906Z,25.1
2017-08-19T12:10:08.930Z,25.2
2017-08-19T12:11:09.667Z,25.3
2017-08-19T12:12:10.396Z,25.5
2017-08-19T12:13:11.208Z,25.3
2017-08-19T12:14:11.982Z,25.4
2017-08-19T12:15:12.712Z,25.3
2017-08-19T12:16:13.494Z,25.4
2017-08-19T12:17:14.237Z,25.4
2017-08-19T12:18:15.039Z,25.4
2017-08-19T12:19:15.977Z,25.5
2017-08-19T12:20:16.857Z,25.5
2017-08-19T12:21:17.605Z,25.5
2017-08-19T12:22:18.541Z,25.6
2017-08-19T12:23:19.670Z,25.6
2017-08-19T12:24:20.408Z,25.7
2017-08-19T12:25:21.350Z,25.8
2017-08-19T12:26:22.131Z,25.9
2017-08-19T12:27:22.858Z,25.9
2017-08-19T12:28:23.642Z,26.0
2017-08-19T12:29:24.520Z,26.1
2017-08-19T12:30:25.350Z,26.2
2017-08-19T12:31:26.084Z,26.2
2017-08-19T12:32:26.902Z,26.2
2017-08-19T12:33:27.672Z,25.8
2017-08-19T12:34:28.735Z,25.8
2017-08-19T12:35:29.577Z,25.8
2017-08-19T12:36:30.290Z,25.8
2017-08-19T12:37:31.130Z,25.8
2017-08-19T12:38:31.865Z,25.8
2017-08-19T12:39:32.617Z,25.9
2017-08-19T12:40:33.418Z,25.7
2017-08-19T12:41:34.161Z,25.7
2017-08-19T12:42:34.973Z,25.6
2017-08-19T12:43:36.289Z,25.7
2017-08-19T12:44:36.945Z,25.7
2017-08-19T12:45:37.752Z,25.7
2017-08-19T12:46:39.021Z,25.7
2017-08-19T12:47:39.805Z,25.7
2017-08-19T12:48:40.520Z,25.7
2017-08-19T12:49:41.435Z,25.7
2017-08-19T12:50:42.511Z,25.7
2017-08-19T12:51:43.736Z,25.7
2017-08-19T12:52:44.786Z,25.7
2017-08-19T12:53:45.497Z,25.7
2017-08-19T12:54:46.674Z,25.8
2017-08-19T12:55:47.438Z,25.7
2017-08-19T12:56:48.389Z,25.6
2017-08-19T12:57:49.389Z,25.5
2017-08-19T12:58:50.140Z,25.5
2017-08-19T12:59:50.864Z,25.5
2017-08-19T13:00:51.622Z,25.5
2017-08-19T13:01:52.414Z,25.5
2017-08-19T13:02:53.373Z,25.5
2017-08-19T13:03:54.553Z,25.6
2017-08-19T13:04:56.594Z,25.7
2017-08-19T13:05:57.395Z,25.7
2017-08-19T13:06:58.395Z,25.7
2017-08-19T13:08:04.806Z,25.7
2017-08-19T13:09:05.665Z,25.8
2017-08-19T13:10:06.486Z,25.6
2017-08-19T13:11:07.294Z,25.5
2017-08-19T13:12:07.974Z,25.3
2017-08-19T13:13:09.043Z,25.2
2017-08-19T13:14:10.202Z,25.3
2017-08-19T13:16:26.801Z,25.3
2017-08-19T13:17:27.580Z,25.2
2017-08-19T13:18:28.431Z,25.3
2017-08-19T13:19:29.120Z,25.3
2017-08-19T13:20:30.493Z,25.3
2017-08-19T13:21:31.166Z,25.3
2017-08-19T13:22:32.013Z,25.5
2017-08-19T13:23:32.956Z,25.4
2017-08-19T13:24:33.706Z,25.3
2017-08-19T13:25:34.441Z,25.5
2017-08-19T13:26:35.405Z,25.2
2017-08-19T13:27:36.189Z,25.2
2017-08-19T13:28:36.941Z,25.1
2017-08-19T13:29:38.057Z,25.1
2017-08-19T13:30:38.753Z,25.0
2017-08-19T13:31:39.613Z,24.9
2017-08-19T13:32:40.315Z,24.8
2017-08-19T13:33:41.052Z,24.8
2017-08-19T13:34:41.842Z,24.9
2017-08-19T13:35:42.606Z,24.8
2017-08-19T13:36:43.438Z,24.9
2017-08-19T13:37:44.263Z,24.8
2017-08-19T13:38:45.077Z,24.9
2017-08-19T13:39:46.113Z,24.9
2017-08-19T13:40:46.871Z,24.9
2017-08-19T13:41:47.571Z,24.9
2017-08-19T13:42:48.378Z,25.0
2017-08-19T13:43:49.081Z,25.0
2017-08-19T13:44:49.811Z,24.9
2017-08-19T13:45:50.619Z,24.9
2017-08-19T13:46:51.445Z,25.0
2017-08-19T13:47:52.206Z,25.1
2017-08-19T13:48:52.937Z,25.1
2017-08-19T13:49:53.876Z,25.0
2017-08-19T13:50:55.093Z,24.9
2017-08-19T13:51:55.936Z,24.9
2017-08-19T13:52:56.693Z,24.9
2017-08-19T13:53:57.679Z,24.8
2017-08-19T13:54:58.459Z,24.3
2017-08-19T13:55:59.459Z,24.2